Time;durP1;ratioP1;P1;durP2;ratioP2;P2;SDS_P1;SDS_P2;PMS_P1;PMS_P2;Temp;Humidity;BMP_temperature;BMP_pressure;BME280_temperature;BME280_humidity;BME280_pressure;Samples;Min_cycle;Max_cycle;Signal;HPM_P1;HPM_P2
2023/12/11 00:01:57;;;;;;;27.53;7.70;;;8.40;99.90;;;;;;5073465;28;20044;-86
2023/12/11 00:04:22;;;;;;;27.00;8.80;;;8.30;99.90;;;;;;5070175;28;20077;-86
2023/12/11 00:06:48;;;;;;;36.67;8.60;;;8.30;99.90;;;;;;5074804;28;20132;-86
2023/12/11 00:09:14;;;;;;;39.37;9.50;;;8.30;99.90;;;;;;5064034;28;20052;-86
2023/12/11 00:11:40;;;;;;;36.20;6.87;;;8.20;99.90;;;;;;5069135;28;20044;-86
2023/12/11 00:14:06;;;;;;;43.30;9.60;;;8.10;99.90;;;;;;5074500;28;20042;-87
2023/12/11 00:16:32;;;;;;;40.03;9.25;;;8.10;99.90;;;;;;5072644;28;20055;-86
2023/12/11 00:18:57;;;;;;;30.70;8.37;;;8.10;99.90;;;;;;5056272;28;20044;-87
2023/12/11 00:21:23;;;;;;;43.23;10.67;;;8.00;99.90;;;;;;5073973;28;20050;-86
2023/12/11 00:23:49;;;;;;;44.00;10.63;;;8.00;99.90;;;;;;5073130;28;20101;-86
2023/12/11 00:26:15;;;;;;;36.10;8.37;;;8.00;99.90;;;;;;5039416;28;20093;-87
2023/12/11 00:28:41;;;;;;;32.58;9.35;;;8.00;99.90;;;;;;5090512;28;20044;-86
2023/12/11 00:31:07;;;;;;;39.37;10.73;;;8.00;99.90;;;;;;5057111;28;20550;-86
2023/12/11 00:33:35;;;;;;;39.33;10.05;;;7.90;99.90;;;;;;5057706;28;20534;-86
2023/12/11 00:36:01;;;;;;;57.67;12.18;;;7.90;99.90;;;;;;5054152;28;20158;-86
2023/12/11 00:38:26;;;;;;;39.55;9.98;;;7.90;99.90;;;;;;5074094;28;20112;-86
2023/12/11 00:40:53;;;;;;;34.07;9.10;;;7.90;99.90;;;;;;5029943;28;20036;-87
2023/12/11 00:43:19;;;;;;;39.58;8.57;;;8.00;99.90;;;;;;5056344;28;20050;-86
2023/12/11 00:45:44;;;;;;;46.63;10.88;;;8.00;99.90;;;;;;5070509;28;20440;-86
2023/12/11 00:48:10;;;;;;;45.53;11.13;;;8.00;99.90;;;;;;5087790;28;20032;-86
2023/12/11 00:50:36;;;;;;;36.27;9.93;;;7.90;99.90;;;;;;5100990;28;20063;-87
2023/12/11 00:53:02;;;;;;;43.33;9.37;;;7.90;99.90;;;;;;5062454;28;20421;-87
2023/12/11 00:55:27;;;;;;;38.23;9.73;;;7.90;99.90;;;;;;5118683;27;20516;-86
2023/12/11 00:57:53;;;;;;;37.20;9.10;;;7.90;99.90;;;;;;5092667;28;20366;-86
2023/12/11 01:00:20;;;;;;;43.70;9.47;;;7.90;99.90;;;;;;5093361;28;20049;-86
2023/12/11 01:02:45;;;;;;;;;;;7.90;99.90;;;;;;5077778;28;20055;-86
2023/12/11 01:05:12;;;;;;;42.55;9.05;;;7.80;99.90;;;;;;5057518;28;19920;-86
2023/12/11 01:07:38;;;;;;;47.92;10.38;;;7.90;99.90;;;;;;5058753;28;20051;-86
2023/12/11 01:10:08;;;;;;;45.50;11.70;;;7.90;99.90;;;;;;5054530;28;20049;-86
2023/12/11 01:12:35;;;;;;;36.10;8.23;;;7.90;99.90;;;;;;5073826;28;20047;-87
2023/12/11 01:15:01;;;;;;;49.17;10.30;;;7.90;99.90;;;;;;5059033;28;20123;-87
2023/12/11 01:17:27;;;;;;;33.60;9.63;;;7.90;99.90;;;;;;5074795;28;20149;-86
2023/12/11 01:19:53;;;;;;;41.57;10.10;;;8.00;99.90;;;;;;5076452;28;20051;-86
2023/12/11 01:22:19;;;;;;;26.67;8.30;;;7.90;99.90;;;;;;5057608;28;20072;-87
2023/12/11 01:24:44;;;;;;;43.10;9.73;;;7.90;99.90;;;;;;5069649;28;20149;-86
2023/12/11 01:27:10;;;;;;;34.97;10.33;;;7.80;99.90;;;;;;5074219;28;20051;-86
2023/12/11 01:29:36;;;;;;;29.87;9.47;;;7.80;99.90;;;;;;5077076;28;20044;-86
2023/12/11 01:32:05;;;;;;;36.85;8.57;;;7.90;99.90;;;;;;5091016;28;20048;-87
2023/12/11 01:34:31;;;;;;;39.80;7.45;;;7.90;99.90;;;;;;5076786;28;20040;-86
2023/12/11 01:36:59;;;;;;;34.20;9.17;;;8.90;99.90;;;;;;5092857;28;20066;-86
2023/12/11 01:39:24;;;;;;;31.95;8.50;;;7.90;99.90;;;;;;5093593;28;20047;-87
2023/12/11 01:41:50;;;;;;;32.67;7.63;;;8.20;99.90;;;;;;5072365;28;20040;-87
2023/12/11 01:44:16;;;;;;;23.67;7.43;;;8.00;99.90;;;;;;5064834;28;20054;-86
2023/12/11 01:46:42;;;;;;;39.87;9.33;;;8.00;99.90;;;;;;5092945;28;20405;-86
2023/12/11 01:49:08;;;;;;;36.10;10.23;;;8.00;99.90;;;;;;5074942;28;20477;-86
2023/12/11 01:51:37;;;;;;;41.50;8.30;;;8.00;99.90;;;;;;5075663;28;20094;-88
2023/12/11 01:54:03;;;;;;;31.95;7.53;;;8.10;99.90;;;;;;5091378;28;20071;-91
2023/12/11 01:56:29;;;;;;;37.97;9.23;;;8.10;99.90;;;;;;5075745;28;20040;-86
2023/12/11 01:58:56;;;;;;;32.53;8.55;;;8.10;99.90;;;;;;5074668;28;20102;-87
2023/12/11 02:01:24;;;;;;;40.60;9.57;;;8.20;99.90;;;;;;5092069;28;20040;-86
2023/12/11 02:03:51;;;;;;;33.80;8.48;;;8.20;99.90;;;;;;5091830;28;20040;-86
2023/12/11 02:06:16;;;;;;;32.22;9.35;;;8.10;99.90;;;;;;5091732;28;20044;-86
2023/12/11 02:08:44;;;;;;;30.33;8.43;;;8.10;99.90;;;;;;5053504;28;20085;-87
2023/12/11 02:11:11;;;;;;;30.70;7.72;;;8.10;99.90;;;;;;5113752;27;20478;-86
2023/12/11 02:13:39;;;;;;;30.73;8.35;;;8.10;99.90;;;;;;5073877;28;20520;-86
2023/12/11 02:16:06;;;;;;;35.35;9.48;;;8.10;99.90;;;;;;5072025;28;20129;-90
2023/12/11 02:18:32;;;;;;;43.17;11.38;;;8.10;99.90;;;;;;5091819;28;20180;-86
2023/12/11 02:20:57;;;;;;;37.20;9.33;;;8.10;99.90;;;;;;5073391;28;20123;-86
2023/12/11 02:23:43;;;;;;;40.40;8.20;;;8.00;99.90;;;;;;5091313;28;20044;-86
2023/12/11 02:26:17;;;;;;;38.70;10.13;;;8.10;99.90;;;;;;5084456;28;20127;-90
2023/12/11 02:28:44;;;;;;;50.45;9.63;;;7.60;99.90;;;;;;5084397;28;20047;-86
2023/12/11 02:31:10;;;;;;;46.95;9.75;;;8.10;99.90;;;;;;5088631;28;20044;-90
2023/12/11 02:33:36;;;;;;;46.75;12.43;;;8.10;99.90;;;;;;5037293;28;20070;-86
2023/12/11 02:36:02;;;;;;;47.20;10.80;;;8.00;99.90;;;;;;5091684;28;20036;-86
2023/12/11 02:38:28;;;;;;;41.58;9.02;;;8.10;99.90;;;;;;5090238;28;20050;-86
2023/12/11 02:40:54;;;;;;;50.07;10.27;;;8.10;99.90;;;;;;5070181;28;20119;-86
2023/12/11 02:43:22;;;;;;;42.23;11.17;;;8.10;99.90;;;;;;5089435;28;20041;-88
2023/12/11 02:45:48;;;;;;;38.92;9.32;;;8.10;99.90;;;;;;5057618;28;20054;-86
2023/12/11 02:48:14;;;;;;;48.70;13.47;;;8.10;99.90;;;;;;5072323;28;20040;-86
2023/12/11 02:50:40;;;;;;;49.97;12.20;;;8.10;99.90;;;;;;5072612;28;20113;-86
2023/12/11 02:53:06;;;;;;;50.33;13.77;;;8.10;99.90;;;;;;5074372;28;20496;-88
2023/12/11 02:55:32;;;;;;;47.33;10.23;;;8.10;99.90;;;;;;5055759;28;20114;-87
2023/12/11 02:58:00;;;;;;;41.88;9.20;;;8.20;99.90;;;;;;5087277;28;20307;-86
2023/12/11 03:00:26;;;;;;;40.92;10.90;;;8.20;99.90;;;;;;5088733;28;21479;-86
2023/12/11 03:02:53;;;;;;;40.33;9.85;;;8.20;99.90;;;;;;5074200;28;20047;-87
2023/12/11 03:05:19;;;;;;;47.92;10.60;;;8.20;99.90;;;;;;5073386;28;20048;-86
2023/12/11 03:07:47;;;;;;;42.57;10.03;;;7.80;99.90;;;;;;5072209;28;20043;-86
2023/12/11 03:10:13;;;;;;;41.63;10.60;;;8.20;99.90;;;;;;5068579;28;20095;-92
2023/12/11 03:12:39;;;;;;;44.73;10.70;;;8.20;99.90;;;;;;5072719;28;20083;-86
2023/12/11 03:15:06;;;;;;;55.40;13.40;;;8.20;99.90;;;;;;5091477;28;20058;-86
2023/12/11 03:17:32;;;;;;;44.67;10.40;;;8.20;99.90;;;;;;5090484;28;20043;-86
2023/12/11 03:19:59;;;;;;;38.40;11.43;;;8.20;99.90;;;;;;5068534;28;20135;-86
2023/12/11 03:22:25;;;;;;;41.97;10.18;;;8.20;99.90;;;;;;5089699;28;20040;-86
2023/12/11 03:24:55;;;;;;;37.72;10.80;;;8.20;99.90;;;;;;5049081;28;20042;-86
2023/12/11 03:27:21;;;;;;;54.70;12.05;;;8.20;99.90;;;;;;5100582;28;20040;-86
2023/12/11 03:29:48;;;;;;;57.78;12.52;;;8.20;99.90;;;;;;5085873;28;20512;-87
2023/12/11 03:32:14;;;;;;;49.00;11.75;;;8.20;99.90;;;;;;5074413;28;20044;-86
2023/12/11 03:34:40;;;;;;;51.78;10.88;;;8.20;99.90;;;;;;5072539;28;20048;-86
2023/12/11 03:37:06;;;;;;;55.47;11.57;;;7.70;99.90;;;;;;5090321;28;20044;-86
2023/12/11 03:39:32;;;;;;;44.97;10.95;;;8.30;99.90;;;;;;5054413;28;20041;-87
2023/12/11 03:41:58;;;;;;;49.63;10.63;;;8.30;99.90;;;;;;5086848;28;20477;-86
2023/12/11 03:44:24;;;;;;;51.93;11.53;;;8.30;99.90;;;;;;5073772;28;20040;-86
2023/12/11 03:46:50;;;;;;;39.73;10.90;;;8.40;99.90;;;;;;5071535;28;20494;-87
2023/12/11 03:49:16;;;;;;;48.47;12.30;;;8.40;99.90;;;;;;5085645;28;20486;-87
2023/12/11 03:51:45;;;;;;;;;;;8.50;99.90;;;;;;5078339;28;20044;-86
2023/12/11 03:54:11;;;;;;;46.60;10.43;;;8.40;99.90;;;;;;5097176;28;19920;-86
2023/12/11 03:56:39;;;;;;;55.83;15.55;;;8.40;99.90;;;;;;5071983;28;20067;-87
2023/12/11 03:59:05;;;;;;;51.88;11.75;;;8.40;99.90;;;;;;5086917;28;20044;-86
2023/12/11 04:01:31;;;;;;;54.38;13.25;;;8.40;99.90;;;;;;5085428;28;20044;-86
2023/12/11 04:03:59;;;;;;;44.33;11.55;;;8.40;99.90;;;;;;5089092;28;20501;-86
2023/12/11 04:06:27;;;;;;;46.72;12.05;;;8.50;99.90;;;;;;5089766;28;20553;-87
2023/12/11 04:08:56;;;;;;;53.22;12.02;;;8.40;99.90;;;;;;5074472;28;20410;-86
2023/12/11 04:11:21;;;;;;;48.60;12.33;;;8.40;99.90;;;;;;5089135;28;20046;-91
2023/12/11 04:13:47;;;;;;;55.57;15.17;;;8.40;99.90;;;;;;5086419;28;20050;-86
2023/12/11 04:16:13;;;;;;;49.60;11.10;;;8.50;99.90;;;;;;5056961;28;20467;-86
2023/12/11 04:18:41;;;;;;;44.10;13.17;;;8.40;99.90;;;;;;5070983;28;20040;-86
2023/12/11 04:21:06;;;;;;;38.08;11.20;;;8.40;99.90;;;;;;5102771;28;20060;-86
2023/12/11 04:23:33;;;;;;;48.13;11.10;;;8.40;99.90;;;;;;5091123;28;20452;-85
2023/12/11 04:25:59;;;;;;;46.80;10.98;;;8.50;99.90;;;;;;5067522;28;20047;-87
2023/12/11 04:28:29;;;;;;;40.10;10.75;;;8.40;99.90;;;;;;5073267;28;20594;-86
2023/12/11 04:30:57;;;;;;;47.92;10.15;;;8.40;99.90;;;;;;5060833;28;20143;-86
2023/12/11 04:33:26;;;;;;;36.45;9.95;;;8.40;99.90;;;;;;5076695;28;20051;-88
2023/12/11 04:35:51;;;;;;;47.07;11.50;;;8.40;99.90;;;;;;5077836;28;20046;-86
2023/12/11 04:38:17;;;;;;;44.20;10.47;;;8.40;99.90;;;;;;5076404;28;20040;-86
2023/12/11 04:40:43;;;;;;;48.80;11.03;;;8.40;99.90;;;;;;5099468;28;20059;-87
2023/12/11 04:43:09;;;;;;;48.50;10.83;;;8.40;99.90;;;;;;5092581;28;20127;-86
2023/12/11 04:45:34;;;;;;;50.47;9.57;;;8.40;99.90;;;;;;5075945;28;20302;-86
2023/12/11 04:48:00;;;;;;;36.63;10.97;;;8.40;99.90;;;;;;5077430;28;20504;-86
2023/12/11 04:50:26;;;;;;;39.50;10.00;;;8.40;99.90;;;;;;5085633;28;20040;-88
2023/12/11 04:52:52;;;;;;;41.67;10.10;;;8.40;99.90;;;;;;5076444;28;20036;-86
2023/12/11 04:55:17;;;;;;;45.43;10.37;;;8.40;99.90;;;;;;5073572;28;20044;-86
2023/12/11 04:57:43;;;;;;;48.47;9.97;;;8.40;99.90;;;;;;5085864;28;20390;-86
2023/12/11 05:00:10;;;;;;;38.00;9.40;;;8.40;99.90;;;;;;5076389;28;20044;-86
2023/12/11 05:02:35;;;;;;;38.15;9.68;;;8.40;99.90;;;;;;5076774;28;20138;-88
2023/12/11 05:05:04;;;;;;;45.57;11.70;;;8.40;99.90;;;;;;5074222;28;20513;-86
2023/12/11 05:07:30;;;;;;;49.92;9.82;;;8.40;99.90;;;;;;5076683;28;20039;-91
2023/12/11 05:09:55;;;;;;;48.83;10.37;;;8.40;99.90;;;;;;5091847;28;20059;-86
2023/12/11 05:12:21;;;;;;;49.97;10.47;;;8.40;99.90;;;;;;5122105;27;20043;-86
2023/12/11 05:14:47;;;;;;;34.80;8.83;;;8.40;99.90;;;;;;5072813;28;20044;-87
2023/12/11 05:17:12;;;;;;;35.87;8.03;;;8.40;99.90;;;;;;5076532;28;20095;-86
2023/12/11 05:19:38;;;;;;;41.83;10.23;;;8.40;99.90;;;;;;5094146;28;20476;-86
2023/12/11 05:22:04;;;;;;;42.70;7.53;;;8.40;99.90;;;;;;5087153;28;20048;-86
2023/12/11 05:24:29;;;;;;;32.70;8.90;;;8.40;99.90;;;;;;5088152;28;20040;-90
2023/12/11 05:26:55;;;;;;;37.00;9.00;;;8.40;99.90;;;;;;5056999;28;20078;-86
2023/12/11 05:29:21;;;;;;;46.63;9.63;;;8.40;99.90;;;;;;5085902;28;20067;-86
2023/12/11 05:31:47;;;;;;;38.20;9.02;;;8.30;99.90;;;;;;5072282;28;20047;-86
2023/12/11 05:34:13;;;;;;;43.43;9.00;;;8.30;99.90;;;;;;5060203;28;20046;-88
2023/12/11 05:36:39;;;;;;;37.92;8.15;;;8.30;99.90;;;;;;5084082;28;20036;-86
2023/12/11 05:39:06;;;;;;;42.10;8.57;;;8.30;99.90;;;;;;5077351;28;20067;-85
2023/12/11 05:41:33;;;;;;;30.27;7.82;;;8.30;99.90;;;;;;5065021;28;20044;-88
2023/12/11 05:43:59;;;;;;;31.88;8.48;;;8.40;99.90;;;;;;5071920;28;20071;-87
2023/12/11 05:46:25;;;;;;;40.33;8.90;;;8.40;99.90;;;;;;5074322;28;20478;-86
2023/12/11 05:48:50;;;;;;;40.77;9.20;;;8.40;99.90;;;;;;5082813;28;20309;-86
2023/12/11 05:51:16;;;;;;;39.27;8.23;;;8.40;99.90;;;;;;5065050;28;20317;-86
2023/12/11 05:53:42;;;;;;;31.37;8.07;;;8.40;99.90;;;;;;5070144;28;20048;-86
2023/12/11 05:56:08;;;;;;;33.47;8.27;;;8.40;99.90;;;;;;5066587;28;20048;-88
2023/12/11 05:58:34;;;;;;;28.42;8.27;;;8.40;99.90;;;;;;5098037;28;20282;-91
2023/12/11 06:01:00;;;;;;;31.37;8.37;;;8.40;99.90;;;;;;5061909;28;20543;-86
2023/12/11 06:03:25;;;;;;;39.03;9.77;;;8.40;99.90;;;;;;5081971;28;20488;-86
2023/12/11 06:05:57;;;;;;;35.07;10.93;;;8.40;99.90;;;;;;5048235;28;20478;-86
2023/12/11 06:08:24;;;;;;;36.42;8.82;;;8.40;99.90;;;;;;5058662;28;20138;-86
2023/12/11 06:10:51;;;;;;;34.40;8.13;;;8.40;99.90;;;;;;5085612;28;20052;-86
2023/12/11 06:13:16;;;;;;;48.38;8.60;;;8.40;99.90;;;;;;5085880;28;20050;-86
2023/12/11 06:15:42;;;;;;;32.33;7.63;;;8.40;99.90;;;;;;5083972;28;20502;-86
2023/12/11 06:18:08;;;;;;;38.25;9.57;;;8.40;99.90;;;;;;5114410;27;20090;-86
2023/12/11 06:20:34;;;;;;;35.77;8.77;;;8.40;99.90;;;;;;5085840;28;20044;-86
2023/12/11 06:22:59;;;;;;;33.53;8.37;;;8.40;99.90;;;;;;5058290;28;20080;-87
2023/12/11 06:25:25;;;;;;;32.57;6.73;;;8.40;99.90;;;;;;5040645;28;20044;-86
2023/12/11 06:27:53;;;;;;;36.27;7.73;;;8.40;99.90;;;;;;5058740;28;20488;-86
2023/12/11 06:30:19;;;;;;;32.58;9.63;;;8.40;99.90;;;;;;5057139;28;20095;-86
2023/12/11 06:32:45;;;;;;;25.60;7.20;;;8.40;99.90;;;;;;5075344;28;20040;-87
2023/12/11 06:35:11;;;;;;;34.23;10.27;;;8.40;99.90;;;;;;5069509;28;20127;-86
2023/12/11 06:37:37;;;;;;;42.93;9.20;;;8.40;99.90;;;;;;5057207;28;20517;-86
2023/12/11 06:40:03;;;;;;;35.43;8.43;;;8.40;99.90;;;;;;5062491;28;20370;-86
2023/12/11 06:42:34;;;;;;;35.15;9.18;;;8.40;99.90;;;;;;5089264;28;20040;-86
2023/12/11 06:45:00;;;;;;;30.55;8.23;;;8.40;99.90;;;;;;5051840;28;20101;-86
2023/12/11 06:47:26;;;;;;;31.30;8.03;;;8.40;99.90;;;;;;5038343;28;20428;-86
2023/12/11 06:49:52;;;;;;;35.97;8.55;;;8.40;99.90;;;;;;5070652;28;20059;-86
2023/12/11 06:52:18;;;;;;;33.63;7.22;;;8.40;99.90;;;;;;5068910;28;21792;-88
2023/12/11 06:54:44;;;;;;;31.40;8.87;;;8.40;99.90;;;;;;5082303;28;20051;-87
2023/12/11 06:57:10;;;;;;;30.10;6.73;;;8.40;99.90;;;;;;5054590;28;20113;-87
2023/12/11 06:59:35;;;;;;;39.07;8.37;;;8.40;99.90;;;;;;5077698;28;20040;-86
2023/12/11 07:02:02;;;;;;;40.93;7.70;;;8.40;99.90;;;;;;5080068;28;20109;-86
2023/12/11 07:04:28;;;;;;;29.05;7.95;;;8.40;99.90;;;;;;5076559;28;20123;-86
2023/12/11 07:06:53;;;;;;;25.07;6.17;;;8.40;99.90;;;;;;5067314;28;20485;-86
2023/12/11 07:09:19;;;;;;;44.63;9.13;;;8.40;99.90;;;;;;5077458;28;20052;-85
2023/12/11 07:11:45;;;;;;;32.13;8.07;;;8.40;99.90;;;;;;5084752;28;20047;-88
2023/12/11 07:14:11;;;;;;;41.57;7.70;;;8.30;99.90;;;;;;5082822;28;20044;-85
2023/12/11 07:16:36;;;;;;;43.07;8.73;;;8.30;99.90;;;;;;5076315;28;20049;-85
2023/12/11 07:19:04;;;;;;;39.23;8.20;;;8.30;99.90;;;;;;5059266;28;20055;-85
2023/12/11 07:21:29;;;;;;;37.42;8.57;;;8.40;99.90;;;;;;5071183;28;20123;-88
2023/12/11 07:23:55;;;;;;;36.50;8.33;;;8.30;99.90;;;;;;5114644;27;20111;-85
2023/12/11 07:26:21;;;;;;;37.83;8.20;;;8.30;99.90;;;;;;5073866;28;20036;-84
2023/12/11 07:28:49;;;;;;;32.95;9.93;;;8.30;99.90;;;;;;5073723;28;20325;-85
2023/12/11 07:31:15;;;;;;;28.57;6.40;;;8.30;99.90;;;;;;5095487;28;20037;-85
2023/12/11 07:33:41;;;;;;;25.87;7.17;;;8.30;99.90;;;;;;5127404;27;20040;-85
2023/12/11 07:36:07;;;;;;;41.03;10.23;;;8.30;99.90;;;;;;5061105;28;20054;-85
2023/12/11 07:38:32;;;;;;;36.25;8.10;;;8.30;99.90;;;;;;5089451;28;20051;-86
2023/12/11 07:40:58;;;;;;;32.90;8.47;;;8.30;99.90;;;;;;5058625;28;20051;-86
2023/12/11 07:43:24;;;;;;;33.50;8.30;;;8.30;99.90;;;;;;5063441;28;20535;-86
2023/12/11 07:45:51;;;;;;;35.67;7.78;;;8.20;99.90;;;;;;5064050;28;20041;-88
2023/12/11 07:48:17;;;;;;;28.23;7.25;;;8.20;99.90;;;;;;5063525;28;20291;-87
2023/12/11 07:50:43;;;;;;;44.13;10.13;;;8.30;99.90;;;;;;5064803;28;20050;-87
2023/12/11 07:53:09;;;;;;;36.00;8.63;;;8.20;99.90;;;;;;5066206;28;20174;-87
2023/12/11 07:55:35;;;;;;;35.23;10.43;;;8.20;99.90;;;;;;5070882;28;20052;-86
2023/12/11 07:58:02;;;;;;;;;;;8.10;99.90;;;;;;5078902;28;20108;-87
2023/12/11 08:00:28;;;;;;;23.70;7.57;;;8.20;99.90;;;;;;5072559;28;19943;-86
2023/12/11 08:02:54;;;;;;;25.10;7.27;;;8.20;99.90;;;;;;5064082;28;20102;-87
2023/12/11 08:05:20;;;;;;;31.70;7.68;;;8.20;99.90;;;;;;5058781;28;20516;-86
2023/12/11 08:07:46;;;;;;;28.23;8.03;;;8.10;99.90;;;;;;5064410;28;20057;-88
2023/12/11 08:10:12;;;;;;;31.33;7.97;;;8.20;99.90;;;;;;5097802;28;20045;-87
2023/12/11 08:12:38;;;;;;;31.13;6.97;;;8.20;99.90;;;;;;5070219;28;20130;-88
2023/12/11 08:15:07;;;;;;;22.85;7.03;;;8.20;99.90;;;;;;5093788;28;20051;-89
2023/12/11 08:17:33;;;;;;;23.42;5.72;;;8.20;99.90;;;;;;5080879;28;20062;-87
2023/12/11 08:20:02;;;;;;;22.95;7.30;;;8.20;99.90;;;;;;5080165;28;20102;-87
2023/12/11 08:22:28;;;;;;;24.30;7.40;;;8.20;99.90;;;;;;5054628;28;20135;-87
2023/12/11 08:24:54;;;;;;;29.07;8.63;;;8.20;99.90;;;;;;5075691;28;20123;-90
2023/12/11 08:27:20;;;;;;;32.58;7.78;;;8.60;99.90;;;;;;5063925;28;20067;-87
2023/12/11 08:29:48;;;;;;;14.63;6.50;;;8.30;99.90;;;;;;5068435;28;20044;-87
2023/12/11 08:32:17;;;;;;;23.13;7.28;;;8.20;99.90;;;;;;5075799;28;20081;-86
2023/12/11 08:34:42;;;;;;;25.38;7.55;;;7.80;99.90;;;;;;5111553;28;20101;-86
2023/12/11 08:37:08;;;;;;;25.43;8.40;;;8.20;99.90;;;;;;5061365;28;20056;-87
2023/12/11 08:39:37;;;;;;;28.97;9.57;;;8.20;99.90;;;;;;5044934;28;20127;-89
2023/12/11 08:42:03;;;;;;;14.63;5.63;;;8.20;99.90;;;;;;5073899;28;20048;-87
2023/12/11 08:44:29;;;;;;;20.23;7.50;;;8.20;99.90;;;;;;5085902;28;20052;-87
2023/12/11 08:46:57;;;;;;;25.53;6.27;;;8.30;99.90;;;;;;5074962;28;20388;-88
2023/12/11 08:49:25;;;;;;;18.00;6.10;;;8.20;99.90;;;;;;5074665;28;20520;-87
2023/12/11 08:51:54;;;;;;;20.63;7.00;;;8.40;99.90;;;;;;5080688;28;20512;-87
2023/12/11 08:54:20;;;;;;;25.17;6.60;;;8.30;99.90;;;;;;5067176;28;20127;-87
2023/12/11 08:56:46;;;;;;;16.90;6.73;;;8.30;99.90;;;;;;5062816;28;20040;-86
2023/12/11 08:59:12;;;;;;;17.73;6.97;;;8.40;99.90;;;;;;5079785;28;20036;-87
2023/12/11 09:01:37;;;;;;;20.63;6.47;;;8.20;99.90;;;;;;5070126;28;20576;-86
2023/12/11 09:04:03;;;;;;;14.90;5.87;;;8.30;99.90;;;;;;5064884;28;20114;-87
2023/12/11 09:06:29;;;;;;;18.17;6.23;;;8.20;99.90;;;;;;5067552;28;20044;-87
2023/12/11 09:08:55;;;;;;;15.63;6.07;;;8.40;99.90;;;;;;5063778;28;20416;-87
2023/12/11 09:11:21;;;;;;;22.10;6.63;;;8.30;99.90;;;;;;5092857;28;20048;-87
2023/12/11 09:13:52;;;;;;;20.17;6.23;;;7.50;99.90;;;;;;5079062;28;20047;-87
2023/12/11 09:16:18;;;;;;;24.63;6.32;;;8.30;99.90;;;;;;5076166;28;20424;-87
2023/12/11 09:18:44;;;;;;;23.17;7.43;;;8.30;99.90;;;;;;5063769;28;20071;-87
2023/12/11 09:21:22;;;;;;;;;;;;;;;;;;;;;
2023/12/11 09:23:51;;;;;;;24.33;7.10;;;8.40;99.90;;;;;;5095373;28;20036;-88
2023/12/11 09:26:17;;;;;;;20.45;6.20;;;8.40;99.90;;;;;;5075341;28;20493;-88
2023/12/11 09:28:46;;;;;;;16.75;6.25;;;8.40;99.90;;;;;;5085754;28;20040;-87
2023/12/11 09:31:14;;;;;;;12.88;6.15;;;8.40;99.90;;;;;;5068014;28;20109;-87
2023/12/11 09:33:45;;;;;;;12.32;5.47;;;8.40;99.90;;;;;;5099284;28;20490;-87
2023/12/11 09:36:11;;;;;;;21.20;5.43;;;8.50;99.90;;;;;;5064728;28;20088;-87
2023/12/11 09:38:37;;;;;;;19.53;5.30;;;8.70;99.90;;;;;;5069673;28;20080;-88
2023/12/11 09:41:07;;;;;;;22.38;6.22;;;8.70;99.90;;;;;;5063955;28;20052;-90
2023/12/11 09:43:34;;;;;;;23.73;6.50;;;8.50;99.90;;;;;;5099651;28;20036;-87
2023/12/11 09:46:02;;;;;;;20.58;5.55;;;8.60;99.90;;;;;;5069583;28;20040;-87
2023/12/11 09:48:35;;;;;;;20.88;5.47;;;8.60;99.90;;;;;;5068478;28;20040;-89
2023/12/11 09:51:09;;;;;;;17.60;6.60;;;8.40;99.90;;;;;;5047252;28;20588;-88
2023/12/11 09:53:36;;;;;;;16.35;5.28;;;8.70;99.90;;;;;;5064486;28;20037;-89
2023/12/11 09:56:03;;;;;;;22.65;6.15;;;8.60;99.90;;;;;;5077493;28;20048;-90
2023/12/11 09:58:45;;;;;;;;;;;;;;;;;;;;;
2023/12/11 10:01:13;;;;;;;18.10;6.15;;;8.70;99.90;;;;;;5080761;28;20048;-88
2023/12/11 10:03:39;;;;;;;16.83;5.25;;;8.70;99.90;;;;;;5066836;28;20091;-88
2023/12/11 10:06:10;;;;;;;22.23;5.45;;;8.70;99.90;;;;;;5067209;28;20044;-91
2023/12/11 10:08:43;;;;;;;11.50;4.82;;;8.70;99.90;;;;;;5078298;28;20055;-88
2023/12/11 10:11:16;;;;;;;15.93;5.45;;;8.70;99.90;;;;;;5065070;28;20071;-88
2023/12/11 10:13:45;;;;;;;16.70;4.60;;;8.70;99.90;;;;;;5069383;28;20048;-87
2023/12/11 10:16:31;;;;;;;11.88;4.00;;;8.70;99.90;;;;;;5095033;28;20498;-88
2023/12/11 10:18:57;;;;;;;14.35;4.13;;;8.70;99.90;;;;;;5067366;28;20383;-89
2023/12/11 10:21:24;;;;;;;13.43;4.55;;;8.70;99.90;;;;;;5076363;28;20055;-88
2023/12/11 10:24:04;;;;;;;15.68;4.22;;;8.70;99.90;;;;;;5088697;28;20051;-89
2023/12/11 10:26:36;;;;;;;21.60;4.10;;;8.80;99.90;;;;;;5055665;28;20091;-88
2023/12/11 10:29:21;;;;;;;18.13;3.90;;;8.70;99.90;;;;;;5055879;28;20090;-88
2023/12/11 10:31:50;;;;;;;20.73;4.38;;;8.80;99.90;;;;;;5072981;28;20170;-87
2023/12/11 10:34:15;;;;;;;13.60;4.22;;;8.80;99.90;;;;;;5072799;28;20040;-88
2023/12/11 10:36:54;;;;;;;15.33;4.50;;;8.80;99.90;;;;;;5072997;28;20043;-87
2023/12/11 10:39:20;;;;;;;14.18;3.60;;;8.80;99.90;;;;;;5055791;28;20044;-87
2023/12/11 10:41:46;;;;;;;17.03;3.60;;;8.90;99.90;;;;;;5056149;28;20052;-88
2023/12/11 10:44:26;;;;;;;17.77;4.50;;;8.80;99.90;;;;;;5055395;28;20429;-90
2023/12/11 10:46:55;;;;;;;20.63;4.82;;;8.80;99.90;;;;;;5072457;28;20070;-88
2023/12/11 10:49:24;;;;;;;14.45;4.43;;;8.90;99.90;;;;;;5054909;28;20094;-88
2023/12/11 10:51:51;;;;;;;14.15;4.22;;;9.00;99.90;;;;;;5072458;28;20044;-88
2023/12/11 10:54:17;;;;;;;14.95;4.57;;;9.00;99.90;;;;;;5055029;28;20049;-88
2023/12/11 10:56:49;;;;;;;21.83;4.65;;;9.00;99.90;;;;;;5055814;28;20049;-88
2023/12/11 10:59:15;;;;;;;12.63;3.50;;;9.20;99.90;;;;;;5070312;28;20040;-89
2023/12/11 11:01:50;;;;;;;18.05;4.63;;;9.10;99.90;;;;;;5075530;28;20427;-88
2023/12/11 11:04:23;;;;;;;19.75;4.47;;;9.10;99.90;;;;;;5126089;27;20683;-88
2023/12/11 11:07:08;;;;;;;16.95;5.00;;;9.00;99.90;;;;;;5059778;28;20122;-88
2023/12/11 11:09:55;;;;;;;25.88;5.28;;;9.00;99.90;;;;;;5074958;28;20047;-88
2023/12/11 11:12:42;;;;;;;23.23;5.35;;;9.00;99.90;;;;;;5072627;28;20070;-87
2023/12/11 11:15:10;;;;;;;18.88;5.40;;;9.00;99.90;;;;;;5063818;28;20048;-88
2023/12/11 11:18:16;;;;;;;12.82;4.50;;;8.20;99.90;;;;;;5091423;28;20059;-89
2023/12/11 11:21:42;;;;;;;15.73;4.25;;;8.80;99.90;;;;;;5073253;28;20141;-92
2023/12/11 11:24:46;;;;;;;21.10;6.27;;;8.10;99.90;;;;;;4979362;28;20046;-92
2023/12/11 11:27:42;;;;;;;16.17;4.78;;;8.70;99.90;;;;;;4919315;29;20054;-91
2023/12/11 11:30:24;;;;;;;;;;;;;;;;;;;;;
2023/12/11 11:33:22;;;;;;;20.52;5.15;;;8.60;99.90;;;;;;5081978;28;20044;-91
2023/12/11 11:35:52;;;;;;;17.80;3.97;;;8.60;99.90;;;;;;5055333;28;20036;-92
2023/12/11 11:39:01;;;;;;;16.55;4.28;;;8.60;99.90;;;;;;5054299;28;20371;-94
2023/12/11 11:41:44;;;;;;;13.43;3.65;;;8.60;99.90;;;;;;5072146;28;20501;-92
2023/12/11 11:48:41;;;;;;;11.30;2.90;;;8.60;99.90;;;;;;5101610;28;20067;-90
2023/12/11 11:51:20;;;;;;;;;;;;;;;;;;;;;
2023/12/11 11:54:10;;;;;;;;;;;;;;;;;;;;;
2023/12/11 11:57:25;;;;;;;;;;;;;;;;;;;;;
2023/12/11 12:00:33;;;;;;;;;;;;;;;;;;;;;
2023/12/11 12:03:35;;;;;;;;;;;;;;;;;;;;;
2023/12/11 12:06:18;;;;;;;19.23;4.90;;;8.60;99.90;;;;;;5093112;28;20082;-93
2023/12/11 12:09:02;;;;;;;14.43;5.20;;;8.60;99.90;;;;;;5071755;28;20048;-91
2023/12/11 12:11:38;;;;;;;16.48;4.43;;;8.60;99.90;;;;;;5098688;28;20046;-90
2023/12/11 12:14:14;;;;;;;19.83;6.28;;;8.60;99.90;;;;;;5102471;28;20040;-89
2023/12/11 12:16:43;;;;;;;24.07;6.90;;;8.60;99.90;;;;;;5054530;28;20102;-89
2023/12/11 12:19:31;;;;;;;22.20;7.90;;;8.60;99.90;;;;;;5071500;28;20054;-89
2023/12/11 12:21:58;;;;;;;17.17;5.75;;;8.60;99.90;;;;;;5074900;28;20106;-89
2023/12/11 12:24:28;;;;;;;17.50;5.20;;;8.50;99.90;;;;;;5070854;28;20051;-93
2023/12/11 12:27:09;;;;;;;18.83;5.40;;;8.40;99.90;;;;;;5054441;28;20041;-89
2023/12/11 12:29:47;;;;;;;23.20;7.03;;;8.50;99.90;;;;;;5053982;28;20123;-89
2023/12/11 12:32:16;;;;;;;18.67;4.95;;;8.50;99.90;;;;;;5088918;28;20086;-89
2023/12/11 12:34:55;;;;;;;18.33;4.80;;;8.40;99.90;;;;;;5088246;28;20513;-89
2023/12/11 12:37:26;;;;;;;18.48;4.78;;;8.50;99.90;;;;;;5054693;28;20102;-89
2023/12/11 12:40:09;;;;;;;;;;;;;;;;;;;;;
2023/12/11 12:42:38;;;;;;;14.82;4.53;;;8.40;99.90;;;;;;5071489;28;20048;-89
2023/12/11 12:45:36;;;;;;;;;;;;;;;;;;;;;
2023/12/11 12:48:02;;;;;;;;;;;8.30;99.90;;;;;;5059380;28;20045;-89
2023/12/11 12:50:31;;;;;;;16.23;4.90;;;8.20;99.90;;;;;;5056207;28;19920;-90
2023/12/11 12:53:22;;;;;;;26.88;5.78;;;8.20;99.90;;;;;;5075013;28;20494;-89
2023/12/11 12:55:51;;;;;;;16.02;3.80;;;7.10;99.90;;;;;;5058167;28;20094;-89
2023/12/11 12:58:29;;;;;;;14.70;3.60;;;8.30;99.90;;;;;;5074954;28;20122;-89
2023/12/11 13:00:56;;;;;;;13.43;3.63;;;7.30;99.90;;;;;;5075490;28;20139;-89
2023/12/11 13:03:35;;;;;;;14.85;3.50;;;8.20;99.90;;;;;;5058264;28;20045;-89
2023/12/11 13:06:11;;;;;;;;;;;;;;;;;;;;;
2023/12/11 13:09:04;;;;;;;15.70;3.65;;;8.20;99.90;;;;;;5074519;28;20056;-88
2023/12/11 13:11:50;;;;;;;11.02;3.10;;;8.10;99.90;;;;;;5074737;28;20059;-93
2023/12/11 13:14:28;;;;;;;11.52;3.55;;;8.10;99.90;;;;;;5058482;28;20080;-89